Anderson Regional Airport
KAND : now visible

Airfield :











YOU CAN JOIN US ON...

 
LOGIN :

Register | Disclaimer

   EN    FR    IT 

 









Legend :    VFR   Marginal VFR   IFR   Intensive IFR   Very Intensive IFR
Visi :
Ceiling :
>= 8 km
>= 3000ft
5 to 8 km
1000 to 3000 ft
1500m to 5 km
500 to 1000 ft
800 to 1500m
200 to 500 ft
< 800m
< 200 ft
Symbols :   Thunderstorms  Fog  Heavy snow  Heavy precipitations  Wind > 20 kt






- Airport Elevation : 782 ft


KAND - Anderson Regional

CURRENT METAR :
  • 212256Z AUTO 00000KT 10SM FEW020 BKN090 14/10 A2994 RMK AO2 SLP136 T01440100

EXPIRED METARs :
  • 212212Z AUTO 00000KT 10SM SCT011 BKN023 BKN029 14/11 A2993 RMK AO2 T01440111
  • 212056Z AUTO 08004KT 10SM BKN010 BKN095 14/11 A2992 RMK AO2 RAE28 SLP127 P0000 60005 T01440111 58029
  • 211956Z AUTO 05004KT 10SM -RA FEW014 BKN036 OVC043 13/11 A2997 RMK AO2 SLP144 P0002 T01280106
  • 211926Z AUTO 01005KT 9SM -RA SCT010 BKN015 OVC034 13/10 A2998 RMK AO2 P0001 T01280100
  • 211856Z AUTO 05006KT 10SM -RA FEW010 OVC038 13/11 A2999 RMK AO2 SLP152 P0003 T01280106
  • 211820Z AUTO VRB06KT 9SM -RA FEW010 SCT014 OVC034 13/11 A3000 RMK AO2 P0002 T01280106
  • 211809Z AUTO 02003KT 6SM RA BR SCT010 BKN014 OVC031 13/11 A3001 RMK AO2 P0002 T01280106

TAF KAND
Valid from the 21 at 18:00 until the 22 at 18:00 UTC


211738Z 2118/2218 06008KT P6SM -RA SCT007 BKN016
FM211900 05009KT 3SM BR VCSH BKN009
FM212000 04008KT 5SM BR BKN011
FM220000 09003KT P6SM BKN027
FM220100 VRB02KT P6SM SCT027
KZTL FIR / North America



MET'MAP, your aeronautical weather chart ! - Copyright ORBIFLY December 2007 - Disclaimer

ORBIFLY MET'MAP TEAM :

Programming & Development : Alexandra Zaïnal
Original concept : Baudouin d'Aumeries
Technical & hardware support : Manuel Goepfert
Assistance : Marc-Olivier Méhu




SOURCES & CREDITS :

   NOAA       Earth
Advisory